createdAt,value
2017-11-14T11:33:27.988Z,55.50
2017-11-14T11:34:31.650Z,55.58
2017-11-14T11:35:34.131Z,55.67
2017-11-14T11:36:36.699Z,55.77
2017-11-14T11:37:39.177Z,55.86
2017-11-14T11:38:41.679Z,55.96
2017-11-14T11:39:44.163Z,56.05
2017-11-14T11:40:46.649Z,56.12
2017-11-14T11:41:49.122Z,56.19
2017-11-14T11:42:51.614Z,56.25
2017-11-14T11:43:54.149Z,56.31
2017-11-14T11:44:56.653Z,56.38
2017-11-14T11:45:59.355Z,56.44
2017-11-14T11:47:01.836Z,56.46
2017-11-14T11:48:04.398Z,56.49
2017-11-14T11:49:06.869Z,56.50
2017-11-14T11:50:09.354Z,56.52
2017-11-14T11:51:11.838Z,56.57
2017-11-14T11:52:14.322Z,56.60
2017-11-14T11:53:16.809Z,56.66
2017-11-14T11:54:19.284Z,56.72
2017-11-14T11:55:21.759Z,56.76
2017-11-14T11:56:24.249Z,56.77
2017-11-14T11:57:26.724Z,56.77
2017-11-14T11:58:29.205Z,56.78
2017-11-14T11:59:31.680Z,56.80
2017-11-14T12:00:34.172Z,56.80
2017-11-14T12:01:36.645Z,56.83
2017-11-14T12:02:39.132Z,56.89
2017-11-14T12:03:41.634Z,56.92
2017-11-14T12:04:44.104Z,56.93
2017-11-14T12:05:46.595Z,56.92
2017-11-14T12:06:49.072Z,56.92
2017-11-14T12:07:51.550Z,56.96
2017-11-14T12:08:54.042Z,57.00
2017-11-14T12:09:56.524Z,57.04
2017-11-14T12:10:58.996Z,57.09
2017-11-14T12:12:01.473Z,57.11
2017-11-14T12:13:04.140Z,57.09
2017-11-14T12:14:06.628Z,57.07
2017-11-14T12:15:09.411Z,57.04
2017-11-14T12:16:11.897Z,57.03
2017-11-14T12:17:14.383Z,57.04
2017-11-14T12:18:16.863Z,57.06
2017-11-14T12:19:19.351Z,57.07
2017-11-14T12:20:21.843Z,57.08
2017-11-14T12:21:24.320Z,57.15
2017-11-14T12:22:26.814Z,57.21
2017-11-14T12:23:29.318Z,57.26
2017-11-14T12:24:31.792Z,57.28
2017-11-14T12:25:34.285Z,57.30
2017-11-14T12:26:36.776Z,57.32
2017-11-14T12:27:39.270Z,57.31
2017-11-14T12:28:41.854Z,57.29
2017-11-14T12:29:44.342Z,57.29
2017-11-14T12:30:46.830Z,57.29
2017-11-14T12:31:49.319Z,57.32
2017-11-14T12:32:52.111Z,57.34
2017-11-14T12:33:54.593Z,57.42
2017-11-14T12:34:58.292Z,57.46
2017-11-14T12:36:01.007Z,57.50
2017-11-14T12:37:04.513Z,57.35
2017-11-14T12:38:07.185Z,57.17
2017-11-14T12:39:11.278Z,56.75
2017-11-14T12:40:14.049Z,56.33
2017-11-14T12:41:16.641Z,55.90
2017-11-14T12:42:19.166Z,55.44
2017-11-14T12:43:21.723Z,54.97
2017-11-14T12:44:24.392Z,54.56
2017-11-14T12:45:27.048Z,54.12
2017-11-14T12:46:29.651Z,53.67
2017-11-14T12:47:32.142Z,53.32
2017-11-14T12:48:34.625Z,52.97
2017-11-14T12:49:37.088Z,52.87
2017-11-14T12:50:39.553Z,52.67
2017-11-14T12:51:42.055Z,52.59
2017-11-14T12:52:44.529Z,52.57
2017-11-14T12:53:47.002Z,52.54
2017-11-14T12:54:49.491Z,52.54
2017-11-14T12:55:51.969Z,52.59
2017-11-14T12:56:54.432Z,52.65
2017-11-14T12:57:56.896Z,52.62
2017-11-14T12:58:59.373Z,52.64
2017-11-14T13:00:01.849Z,52.52
2017-11-14T13:01:04.316Z,52.45
2017-11-14T13:02:06.792Z,52.29
2017-11-14T13:03:09.811Z,52.14
2017-11-14T13:04:12.409Z,51.88
2017-11-14T13:05:15.004Z,51.71
2017-11-14T13:06:17.570Z,51.63
2017-11-14T13:07:20.180Z,51.55
2017-11-14T13:08:22.713Z,51.42
2017-11-14T13:09:25.257Z,51.38
2017-11-14T13:10:29.240Z,51.34
2017-11-14T13:11:31.906Z,51.42
2017-11-14T13:12:34.390Z,51.49
2017-11-14T13:13:37.011Z,51.58
2017-11-14T13:14:39.691Z,51.61
2017-11-14T13:15:42.466Z,51.72
2017-11-14T13:16:45.081Z,51.74
2017-11-14T13:17:47.744Z,51.67
2017-11-14T13:18:50.226Z,51.67
2017-11-14T13:19:53.280Z,51.46
2017-11-14T13:20:55.865Z,51.26
2017-11-14T13:21:58.934Z,51.14
2017-11-14T13:23:01.499Z,51.01
2017-11-14T13:24:04.014Z,50.85
2017-11-14T13:25:06.628Z,50.80
2017-11-14T13:26:09.150Z,50.88
2017-11-14T13:27:11.614Z,50.88
2017-11-14T13:28:14.078Z,50.91
2017-11-14T13:29:16.574Z,51.00
2017-11-14T13:30:19.058Z,51.08
2017-11-14T13:31:21.532Z,51.15
2017-11-14T13:32:24.019Z,51.28
2017-11-14T13:33:26.497Z,51.29
2017-11-14T13:34:28.980Z,51.31
2017-11-14T13:35:31.448Z,51.22
2017-11-14T13:36:33.945Z,51.13
2017-11-14T13:37:36.417Z,51.05
2017-11-14T13:38:38.880Z,50.87
2017-11-14T13:39:41.425Z,50.71
2017-11-14T13:40:43.890Z,50.58
2017-11-14T13:41:46.352Z,50.51
2017-11-14T13:42:48.837Z,50.59
2017-11-14T13:43:51.399Z,50.57
2017-11-14T13:44:54.885Z,50.61
2017-11-14T13:45:58.149Z,50.69
2017-11-14T13:47:00.799Z,50.79
2017-11-14T13:48:03.359Z,50.87
2017-11-14T13:49:06.018Z,50.98
2017-11-14T13:50:08.659Z,51.05
2017-11-14T13:51:11.133Z,51.03
2017-11-14T13:52:14.622Z,51.04
2017-11-14T13:53:17.694Z,50.97
2017-11-14T13:54:20.212Z,50.90
2017-11-14T13:55:22.676Z,50.77
2017-11-14T13:56:25.267Z,50.64
2017-11-14T13:57:27.742Z,50.56
2017-11-14T13:58:30.253Z,50.51
2017-11-14T13:59:32.730Z,50.50
2017-11-14T14:00:35.188Z,50.45
2017-11-14T14:01:37.648Z,50.52
2017-11-14T14:02:40.124Z,50.57
2017-11-14T14:03:42.614Z,50.63
2017-11-14T14:04:45.093Z,50.76
2017-11-14T14:05:47.600Z,50.81
2017-11-14T14:06:50.081Z,50.88
2017-11-14T14:07:52.651Z,50.90
2017-11-14T14:08:55.152Z,50.88
2017-11-14T14:09:57.619Z,50.82
2017-11-14T14:11:00.081Z,50.65
2017-11-14T14:12:02.563Z,50.53
2017-11-14T14:13:05.030Z,50.38
2017-11-14T14:14:07.519Z,50.34
2017-11-14T14:15:10.010Z,50.33
2017-11-14T14:16:12.477Z,50.27
2017-11-14T14:17:14.943Z,50.30
2017-11-14T14:18:17.404Z,50.33
2017-11-14T14:19:19.878Z,50.41
2017-11-14T14:20:23.221Z,50.47
2017-11-14T14:21:26.308Z,50.55
2017-11-14T14:22:28.795Z,50.67
2017-11-14T14:23:31.936Z,50.78
2017-11-14T14:24:34.445Z,50.77
2017-11-14T14:25:36.913Z,50.79
2017-11-14T14:26:39.423Z,50.71
2017-11-14T14:27:41.892Z,50.53
2017-11-14T14:28:44.526Z,50.41
2017-11-14T14:29:46.984Z,50.31
2017-11-14T14:30:49.463Z,50.24
2017-11-14T14:31:51.930Z,50.16
2017-11-14T14:32:54.401Z,50.16
2017-11-14T14:33:56.950Z,50.24
2017-11-14T14:35:00.492Z,50.28
2017-11-14T14:36:04.795Z,50.35
2017-11-14T14:37:09.572Z,50.40
2017-11-14T14:38:13.299Z,50.46
2017-11-14T14:39:17.087Z,50.52
2017-11-14T14:40:21.952Z,50.59
2017-11-14T14:41:26.072Z,50.60
2017-11-14T14:42:29.907Z,50.62
2017-11-14T14:43:33.804Z,50.58
2017-11-14T14:44:37.859Z,50.44
2017-11-14T14:45:41.325Z,50.36
2017-11-14T14:46:43.882Z,50.26
2017-11-14T14:47:46.359Z,50.17
2017-11-14T14:48:48.843Z,50.09
2017-11-14T14:49:51.317Z,50.10
2017-11-14T14:50:53.795Z,50.00
2017-11-14T14:51:56.286Z,50.06
2017-11-14T14:52:58.754Z,50.11
2017-11-14T14:54:01.219Z,50.19
2017-11-14T14:55:03.705Z,50.29
2017-11-14T14:56:06.184Z,50.42
2017-11-14T14:57:08.667Z,50.49
2017-11-14T14:58:11.132Z,50.58
2017-11-14T14:59:13.594Z,50.61
2017-11-14T15:00:16.076Z,50.47
2017-11-14T15:01:18.537Z,50.33
2017-11-14T15:02:21.006Z,50.15
2017-11-14T15:03:23.469Z,50.04
2017-11-14T15:04:25.936Z,49.95
2017-11-14T15:05:28.414Z,49.90
2017-11-14T15:06:30.959Z,49.89
2017-11-14T15:07:33.429Z,49.93
2017-11-14T15:08:35.913Z,49.93
2017-11-14T15:09:38.406Z,49.98
2017-11-14T15:10:40.887Z,50.08
2017-11-14T15:11:43.357Z,50.15
2017-11-14T15:12:45.843Z,50.27
2017-11-14T15:13:48.322Z,50.37
2017-11-14T15:14:50.886Z,50.45
2017-11-14T15:15:53.468Z,50.46
2017-11-14T15:16:55.928Z,50.41
2017-11-14T15:17:59.510Z,50.23
2017-11-14T15:19:01.977Z,50.19
2017-11-14T15:20:04.459Z,50.11
2017-11-14T15:21:06.943Z,50.02
2017-11-14T15:22:09.434Z,50.00
2017-11-14T15:23:11.915Z,49.99
2017-11-14T15:24:14.394Z,50.06
2017-11-14T15:25:16.875Z,50.12
2017-11-14T15:26:19.359Z,50.23
2017-11-14T15:27:21.816Z,50.26
2017-11-14T15:28:24.280Z,50.36
2017-11-14T15:29:26.764Z,50.48
2017-11-14T15:30:29.234Z,50.53
2017-11-14T15:31:31.701Z,50.55
2017-11-14T15:32:34.160Z,50.45
2017-11-14T15:33:36.629Z,50.41
2017-11-14T15:34:39.107Z,50.22
2017-11-14T15:35:41.602Z,50.20
2017-11-14T15:36:44.084Z,50.21
2017-11-14T15:37:46.562Z,50.18
2017-11-14T15:38:49.030Z,50.25
2017-11-14T15:39:51.500Z,50.27
2017-11-14T15:40:53.968Z,50.27
2017-11-14T15:41:56.434Z,50.34
2017-11-14T15:42:58.939Z,50.42
2017-11-14T15:44:01.507Z,50.45
2017-11-14T15:45:03.970Z,50.57
2017-11-14T15:46:06.444Z,50.63
2017-11-14T15:47:08.929Z,50.70
2017-11-14T15:48:11.417Z,50.41
2017-11-14T15:49:13.881Z,50.27
2017-11-14T15:50:16.369Z,50.11
2017-11-14T15:51:18.836Z,50.25
2017-11-14T15:52:21.323Z,50.46
2017-11-14T15:53:23.814Z,50.49
2017-11-14T15:54:26.306Z,50.68
2017-11-14T15:55:28.793Z,50.39
2017-11-14T15:56:31.378Z,50.26
2017-11-14T15:57:33.851Z,50.35
2017-11-14T15:58:36.333Z,50.46
2017-11-14T15:59:39.238Z,50.44
2017-11-14T16:00:41.718Z,50.42
2017-11-14T16:01:44.540Z,50.32
2017-11-14T16:02:47.011Z,50.22
2017-11-14T16:03:49.524Z,50.00
2017-11-14T16:04:51.998Z,50.13
2017-11-14T16:05:54.490Z,49.95
2017-11-14T16:06:57.008Z,49.88
2017-11-14T16:07:59.481Z,49.81
2017-11-14T16:09:02.027Z,49.81
2017-11-14T16:10:04.521Z,49.89
2017-11-14T16:11:06.985Z,50.06
2017-11-14T16:12:09.518Z,50.15
2017-11-14T16:13:12.498Z,50.23
2017-11-14T16:14:15.567Z,50.23
2017-11-14T16:15:19.004Z,50.40
2017-11-14T16:16:22.598Z,50.48
2017-11-14T16:17:25.121Z,50.61
2017-11-14T16:18:28.259Z,50.66
2017-11-14T16:19:32.569Z,50.58
2017-11-14T16:20:35.622Z,50.57
2017-11-14T16:21:38.810Z,50.48
2017-11-14T16:22:41.805Z,50.34
2017-11-14T16:23:44.929Z,50.17
2017-11-14T16:24:47.587Z,50.03
2017-11-14T16:25:50.071Z,49.90
2017-11-14T16:26:52.550Z,49.87
2017-11-14T16:27:55.706Z,49.80
2017-11-14T16:28:58.776Z,49.84
2017-11-14T16:30:01.853Z,49.73
2017-11-14T16:31:04.748Z,49.78
2017-11-14T16:32:07.291Z,49.86
2017-11-14T16:33:09.813Z,49.91
2017-11-14T16:34:12.396Z,49.97
2017-11-14T16:35:15.663Z,50.14
2017-11-14T16:36:18.949Z,50.17
2017-11-14T16:37:22.262Z,50.39
2017-11-14T16:38:25.693Z,50.51
2017-11-14T16:39:29.217Z,50.57
2017-11-14T16:40:32.492Z,50.73
2017-11-14T16:41:35.416Z,50.91
2017-11-14T16:42:37.899Z,50.90
2017-11-14T16:43:40.379Z,50.86
2017-11-14T16:44:42.861Z,50.78
2017-11-14T16:45:45.325Z,50.78
2017-11-14T16:46:47.793Z,50.58
2017-11-14T16:47:50.280Z,50.46
2017-11-14T16:48:52.748Z,50.36
2017-11-14T16:49:55.218Z,50.53
2017-11-14T16:50:58.516Z,50.39
2017-11-14T16:52:01.000Z,50.22
2017-11-14T16:53:03.477Z,49.86
2017-11-14T16:54:05.961Z,49.75
2017-11-14T16:55:08.432Z,49.80
2017-11-14T16:56:10.914Z,49.91
2017-11-14T16:57:13.401Z,50.04
2017-11-14T16:58:15.888Z,50.07
2017-11-14T16:59:18.374Z,50.13
2017-11-14T17:00:20.853Z,50.23
2017-11-14T17:01:23.342Z,50.37
2017-11-14T17:02:25.808Z,50.40
2017-11-14T17:03:28.684Z,50.42
2017-11-14T17:04:31.247Z,50.51
2017-11-14T17:05:33.728Z,50.58
2017-11-14T17:06:36.205Z,50.68
2017-11-14T17:07:38.692Z,50.76
2017-11-14T17:08:41.179Z,50.86
2017-11-14T17:09:43.823Z,50.90
2017-11-14T17:10:46.327Z,50.99
2017-11-14T17:11:48.830Z,50.99
2017-11-14T17:12:51.325Z,51.06
2017-11-14T17:13:53.802Z,51.17
2017-11-14T17:14:56.283Z,51.22
2017-11-14T17:15:58.756Z,51.24
2017-11-14T17:17:01.234Z,51.26
2017-11-14T17:18:03.998Z,51.32
2017-11-14T17:19:06.531Z,51.36
2017-11-14T17:20:09.017Z,51.44
2017-11-14T17:21:11.504Z,51.51
2017-11-14T17:22:13.966Z,51.57
2017-11-14T17:23:16.428Z,51.64
2017-11-14T17:24:18.888Z,51.69
2017-11-14T17:25:21.367Z,51.74
2017-11-14T17:26:23.869Z,51.79
2017-11-14T17:27:26.372Z,51.85
2017-11-14T17:28:28.861Z,51.90
2017-11-14T17:29:31.382Z,51.96
2017-11-14T17:30:33.881Z,52.04
2017-11-14T17:31:37.093Z,52.09
2017-11-14T17:32:39.598Z,52.11
2017-11-14T17:33:42.075Z,52.18
2017-11-14T17:34:44.537Z,52.21
2017-11-14T17:35:47.003Z,52.27
2017-11-14T17:36:49.561Z,52.29
2017-11-14T17:37:52.053Z,52.34
2017-11-14T17:38:56.417Z,52.38
2017-11-14T17:39:58.961Z,52.43
2017-11-14T17:41:01.441Z,52.47
2017-11-14T17:42:03.926Z,52.48
2017-11-14T17:43:06.405Z,52.51
2017-11-14T17:44:08.880Z,52.54
2017-11-14T17:45:11.358Z,52.59
2017-11-14T17:46:13.816Z,52.60
2017-11-14T17:47:16.311Z,52.64
2017-11-14T17:48:18.882Z,52.66
2017-11-14T17:49:21.367Z,52.70
2017-11-14T17:50:24.472Z,52.73
2017-11-14T17:51:26.947Z,52.76
2017-11-14T17:52:29.413Z,52.79
2017-11-14T17:53:31.985Z,52.82
2017-11-14T17:54:34.469Z,52.85
2017-11-14T17:55:36.936Z,52.89
2017-11-14T17:56:39.418Z,52.90
2017-11-14T17:57:41.889Z,52.92
2017-11-14T17:58:44.411Z,52.93
2017-11-14T17:59:46.900Z,52.95
2017-11-14T18:00:49.487Z,52.94
2017-11-14T18:01:52.052Z,52.96
2017-11-14T18:02:54.531Z,52.97
2017-11-14T18:03:56.997Z,52.99
2017-11-14T18:05:00.683Z,52.99
2017-11-14T18:06:03.151Z,52.98
2017-11-14T18:07:05.642Z,53.02
2017-11-14T18:08:09.599Z,53.03
2017-11-14T18:09:12.225Z,53.04
2017-11-14T18:10:14.724Z,53.06
2017-11-14T18:11:17.197Z,53.04
2017-11-14T18:12:19.665Z,53.07
2017-11-14T18:13:22.254Z,53.09
2017-11-14T18:14:24.741Z,53.12
2017-11-14T18:15:28.166Z,53.13
2017-11-14T18:16:30.968Z,53.13
2017-11-14T18:17:33.622Z,53.16
2017-11-14T18:18:36.203Z,53.18
2017-11-14T18:19:39.941Z,53.20
2017-11-14T18:20:42.430Z,53.19
2017-11-14T18:21:44.916Z,53.23
2017-11-14T18:22:47.410Z,53.24
2017-11-14T18:23:49.949Z,53.22
2017-11-14T18:24:52.569Z,53.25
2017-11-14T18:25:55.138Z,53.24
2017-11-14T18:26:57.669Z,53.24
2017-11-14T18:28:00.168Z,53.25
2017-11-14T18:29:02.627Z,53.25
2017-11-14T18:30:06.939Z,53.26
2017-11-14T18:31:09.462Z,53.30
2017-11-14T18:32:12.171Z,53.31
2017-11-14T18:33:14.677Z,53.31
2017-11-14T18:34:17.154Z,53.31
2017-11-14T18:35:19.656Z,53.33
2017-11-14T18:36:22.162Z,53.39
2017-11-14T18:37:24.637Z,53.47
2017-11-14T18:38:27.148Z,53.53
2017-11-14T18:39:29.705Z,53.63
2017-11-14T18:40:32.366Z,53.72
2017-11-14T18:41:35.503Z,53.78
2017-11-14T18:42:38.624Z,54.00
2017-11-14T18:43:41.155Z,54.10
2017-11-14T18:44:44.679Z,54.17
2017-11-14T18:45:47.195Z,54.21
2017-11-14T18:46:49.875Z,54.36
2017-11-14T18:47:53.508Z,54.57
2017-11-14T18:48:57.605Z,54.60
2017-11-14T18:50:00.222Z,54.69
2017-11-14T18:51:03.028Z,54.71
2017-11-14T18:52:06.309Z,54.69
2017-11-14T18:53:09.581Z,54.73
2017-11-14T18:54:12.344Z,54.78
2017-11-14T18:55:15.212Z,54.81
2017-11-14T18:56:17.868Z,54.83
2017-11-14T18:57:20.740Z,54.84
2017-11-14T18:58:24.076Z,54.77
2017-11-14T18:59:27.009Z,54.81
2017-11-14T19:00:30.272Z,54.83
2017-11-14T19:01:33.129Z,54.96
2017-11-14T19:02:36.822Z,55.09
2017-11-14T19:03:39.967Z,55.15
2017-11-14T19:04:42.653Z,55.18
2017-11-14T19:05:47.008Z,55.19
2017-11-14T19:06:50.827Z,55.17
2017-11-14T19:07:53.711Z,55.45
2017-11-14T19:08:56.217Z,55.09
2017-11-14T19:09:59.958Z,55.03
2017-11-14T19:11:02.722Z,55.08
2017-11-14T19:12:05.690Z,55.19
2017-11-14T19:13:08.347Z,55.21
2017-11-14T19:14:11.119Z,55.27
2017-11-14T19:15:14.965Z,55.41
2017-11-14T19:16:17.706Z,55.54
2017-11-14T19:17:21.564Z,56.22
2017-11-14T19:18:24.230Z,56.68
2017-11-14T19:19:27.094Z,57.02
2017-11-14T19:20:29.629Z,57.23
2017-11-14T19:21:32.418Z,57.55
2017-11-14T19:22:37.492Z,57.55
2017-11-14T19:23:40.887Z,57.59
2017-11-14T19:24:43.685Z,57.69
2017-11-14T19:25:46.784Z,57.74
2017-11-14T19:26:49.727Z,57.78
2017-11-14T19:27:52.335Z,57.92
2017-11-14T19:28:55.075Z,58.00
2017-11-14T19:29:57.597Z,58.06
2017-11-14T19:31:00.343Z,58.17
2017-11-14T19:32:03.217Z,58.25
2017-11-14T19:33:06.006Z,58.29
2017-11-14T19:34:09.693Z,58.38
2017-11-14T19:35:12.972Z,58.34
2017-11-14T19:36:15.637Z,58.27
2017-11-14T19:37:19.520Z,58.23
2017-11-14T19:38:22.249Z,58.26
2017-11-14T19:39:25.188Z,58.21
2017-11-14T19:40:28.065Z,58.20
2017-11-14T19:41:30.787Z,58.13
2017-11-14T19:42:33.420Z,58.16
2017-11-14T19:43:36.317Z,58.13
2017-11-14T19:44:40.369Z,58.13
2017-11-14T19:45:44.406Z,58.18
2017-11-14T19:46:47.509Z,58.18
2017-11-14T19:47:50.116Z,58.15
2017-11-14T19:48:52.820Z,58.17
2017-11-14T19:49:56.592Z,58.10
2017-11-14T19:50:59.570Z,58.10
2017-11-14T19:52:03.249Z,57.98
2017-11-14T19:53:06.333Z,57.96
2017-11-14T19:54:09.306Z,57.99
2017-11-14T19:55:13.220Z,57.98
2017-11-14T19:56:15.743Z,58.02
2017-11-14T19:57:21.390Z,58.06
2017-11-14T19:58:26.015Z,58.04
2017-11-14T19:59:31.515Z,57.93
2017-11-14T20:00:36.443Z,57.92
2017-11-14T20:01:41.041Z,57.93
2017-11-14T20:02:45.992Z,57.91
2017-11-14T20:03:51.011Z,57.98
2017-11-14T20:04:55.583Z,58.04
2017-11-14T20:06:00.750Z,58.09
2017-11-14T20:07:06.970Z,58.12
2017-11-14T20:08:11.456Z,58.33
2017-11-14T20:09:16.056Z,58.41
2017-11-14T20:10:19.656Z,58.41
2017-11-14T20:11:27.669Z,58.28
2017-11-14T20:12:32.179Z,58.30
2017-11-14T20:13:36.039Z,58.35
2017-11-14T20:14:40.100Z,58.37
2017-11-14T20:15:45.577Z,58.37
2017-11-14T20:16:50.105Z,58.36
2017-11-14T20:17:56.570Z,58.39
2017-11-14T20:19:01.067Z,58.39
2017-11-14T20:20:06.647Z,58.39
2017-11-14T20:21:12.048Z,58.41
2017-11-14T20:22:16.423Z,58.49
2017-11-14T20:23:22.450Z,58.63
2017-11-14T20:24:26.340Z,58.66
2017-11-14T20:25:30.704Z,58.66
2017-11-14T20:26:34.184Z,58.64
2017-11-14T20:27:37.561Z,58.61
2017-11-14T20:28:40.839Z,59.01
2017-11-14T20:29:47.937Z,59.45
2017-11-14T20:30:52.166Z,59.58
2017-11-14T20:31:56.445Z,59.77
2017-11-14T20:33:00.192Z,59.83
2017-11-14T20:34:03.604Z,59.75
2017-11-14T20:35:07.890Z,59.78
2017-11-14T20:36:12.242Z,59.73
2017-11-14T20:37:16.721Z,59.72
2017-11-14T20:38:20.661Z,59.65
2017-11-14T20:39:24.601Z,59.53
2017-11-14T20:40:27.901Z,59.57
2017-11-14T20:41:30.808Z,59.61
2017-11-14T20:42:33.571Z,59.56
2017-11-14T20:43:38.774Z,59.39
2017-11-14T20:44:44.076Z,59.46
2017-11-14T20:45:48.137Z,59.40
2017-11-14T20:46:52.497Z,59.47
2017-11-14T20:47:57.047Z,59.46
2017-11-14T20:49:00.299Z,59.45
2017-11-14T20:50:04.579Z,59.43
2017-11-14T20:51:07.983Z,59.35
2017-11-14T20:52:10.845Z,59.35
2017-11-14T20:53:14.459Z,59.31
2017-11-14T20:54:17.500Z,59.29
2017-11-14T20:55:20.509Z,59.26
2017-11-14T20:56:24.730Z,59.21
2017-11-14T20:57:28.691Z,59.23
2017-11-14T20:58:31.835Z,59.22
2017-11-14T20:59:36.348Z,59.19
2017-11-14T21:00:40.230Z,59.16
2017-11-14T21:01:43.078Z,59.15
2017-11-14T21:02:45.968Z,59.10
2017-11-14T21:03:49.142Z,59.09
2017-11-14T21:04:51.990Z,59.11
2017-11-14T21:05:54.776Z,59.03
2017-11-14T21:06:58.269Z,58.97
2017-11-14T21:08:01.441Z,59.02
2017-11-14T21:09:04.555Z,59.05
2017-11-14T21:10:08.197Z,59.02
2017-11-14T21:11:12.769Z,58.97
2017-11-14T21:12:15.973Z,59.00
2017-11-14T21:13:21.293Z,58.99
2017-11-14T21:14:25.066Z,58.99
2017-11-14T21:15:29.863Z,58.99
2017-11-14T21:16:33.380Z,58.99
2017-11-14T21:17:36.146Z,58.91
2017-11-14T21:18:40.055Z,58.88
2017-11-14T21:19:43.184Z,58.93
2017-11-14T21:20:47.472Z,58.94
2017-11-14T21:21:50.731Z,58.94
2017-11-14T21:22:53.656Z,58.91
2017-11-14T21:23:58.365Z,58.94
2017-11-14T21:25:00.841Z,59.06
2017-11-14T21:26:04.419Z,59.20
2017-11-14T21:27:06.915Z,59.17
2017-11-14T21:28:10.655Z,59.30
2017-11-14T21:29:13.358Z,59.32
2017-11-14T21:30:15.856Z,59.39
2017-11-14T21:31:18.415Z,59.42
2017-11-14T21:32:20.918Z,59.33
2017-11-14T21:33:23.458Z,59.31
2017-11-14T21:34:25.954Z,59.29
2017-11-14T21:35:29.517Z,59.33
2017-11-14T21:36:34.002Z,59.25
2017-11-14T21:37:36.503Z,59.17
2017-11-14T21:38:38.988Z,58.98
2017-11-14T21:39:41.586Z,58.77
2017-11-14T21:40:44.072Z,58.52
2017-11-14T21:41:46.564Z,58.33
2017-11-14T21:42:49.039Z,58.07
2017-11-14T21:43:51.509Z,57.88
2017-11-14T21:44:54.035Z,57.72
2017-11-14T21:45:56.499Z,57.59
2017-11-14T21:46:58.979Z,57.46
2017-11-14T21:48:01.456Z,57.33
2017-11-14T21:49:03.916Z,57.22
2017-11-14T21:50:06.461Z,57.14
2017-11-14T21:51:09.228Z,57.09
2017-11-14T21:52:12.794Z,57.02
2017-11-14T21:53:15.282Z,57.01
2017-11-14T21:54:17.823Z,56.99
2017-11-14T21:55:20.305Z,56.91
2017-11-14T21:56:24.004Z,56.87
2017-11-14T21:57:26.501Z,56.89
2017-11-14T21:58:28.972Z,56.95
2017-11-14T21:59:31.467Z,56.97
2017-11-14T22:00:33.949Z,56.95
2017-11-14T22:01:37.796Z,56.91
2017-11-14T22:02:40.279Z,56.94
2017-11-14T22:03:42.758Z,56.95
2017-11-14T22:04:45.229Z,56.97
2017-11-14T22:05:47.722Z,56.98
2017-11-14T22:06:50.188Z,57.00
2017-11-14T22:07:52.668Z,57.04
2017-11-14T22:08:55.137Z,57.06
2017-11-14T22:09:57.600Z,57.09
2017-11-14T22:11:00.087Z,57.09
2017-11-14T22:12:02.563Z,57.14
2017-11-14T22:13:05.028Z,57.16
2017-11-14T22:14:07.503Z,57.16
2017-11-14T22:15:09.964Z,57.17
2017-11-14T22:16:12.423Z,57.15
2017-11-14T22:17:14.884Z,57.15
2017-11-14T22:18:17.356Z,57.12
2017-11-14T22:19:19.816Z,57.13
2017-11-14T22:20:22.275Z,57.13
2017-11-14T22:21:24.754Z,57.14
2017-11-14T22:22:27.216Z,57.15
2017-11-14T22:23:29.695Z,57.14
2017-11-14T22:24:32.157Z,57.14
2017-11-14T22:25:34.641Z,57.12
2017-11-14T22:26:37.105Z,57.13
2017-11-14T22:27:39.585Z,57.18
2017-11-14T22:28:42.062Z,57.20
2017-11-14T22:29:44.524Z,57.23
2017-11-14T22:30:47.006Z,57.27
2017-11-14T22:31:49.470Z,57.30
2017-11-14T22:32:51.955Z,57.35
2017-11-14T22:33:54.419Z,57.38
2017-11-14T22:34:56.909Z,57.42
2017-11-14T22:35:59.368Z,57.43
2017-11-14T22:37:01.831Z,57.43
2017-11-14T22:38:04.391Z,57.48
2017-11-14T22:39:06.875Z,57.51
2017-11-14T22:40:09.344Z,57.53
2017-11-14T22:41:11.809Z,57.60
2017-11-14T22:42:14.277Z,57.71
2017-11-14T22:43:17.432Z,57.73
2017-11-14T22:44:20.608Z,57.77
2017-11-14T22:45:23.227Z,57.83
2017-11-14T22:46:25.724Z,57.90
2017-11-14T22:47:28.187Z,57.92
2017-11-14T22:48:30.652Z,57.85
2017-11-14T22:49:33.121Z,57.86
2017-11-14T22:50:35.589Z,57.92
2017-11-14T22:51:38.052Z,57.98
2017-11-14T22:52:40.543Z,58.00
2017-11-14T22:53:43.035Z,58.04
2017-11-14T22:54:46.007Z,58.12
2017-11-14T22:55:49.281Z,58.06
2017-11-14T22:56:51.805Z,58.06
2017-11-14T22:57:55.402Z,58.12
2017-11-14T22:58:58.804Z,58.16
2017-11-14T23:00:01.904Z,58.14
2017-11-14T23:01:04.952Z,58.16
2017-11-14T23:02:07.456Z,58.15
2017-11-14T23:03:09.916Z,58.15
2017-11-14T23:04:12.733Z,58.18
2017-11-14T23:05:15.524Z,58.24
2017-11-14T23:06:17.984Z,58.10
2017-11-14T23:07:20.461Z,57.89
2017-11-14T23:08:22.942Z,57.71
2017-11-14T23:09:25.455Z,57.63
2017-11-14T23:10:27.920Z,57.27
2017-11-14T23:11:30.391Z,57.14
2017-11-14T23:12:32.853Z,57.05
2017-11-14T23:13:35.323Z,57.03
2017-11-14T23:14:37.888Z,56.88
2017-11-14T23:15:40.403Z,56.73
2017-11-14T23:16:42.953Z,56.75
2017-11-14T23:17:45.484Z,56.78
2017-11-14T23:18:47.947Z,56.78
2017-11-14T23:19:50.430Z,56.83
2017-11-14T23:20:52.905Z,56.93
2017-11-14T23:21:55.383Z,57.02
2017-11-14T23:22:57.864Z,57.06
2017-11-14T23:24:00.452Z,57.10
2017-11-14T23:25:03.131Z,57.14
2017-11-14T23:26:05.625Z,57.19
2017-11-14T23:27:08.116Z,57.25
2017-11-14T23:28:10.619Z,57.33
2017-11-14T23:29:13.080Z,57.34
2017-11-14T23:30:15.553Z,57.38
2017-11-14T23:31:18.033Z,57.41
2017-11-14T23:32:20.506Z,57.48
2017-11-14T23:33:22.978Z,57.63
2017-11-14T23:34:25.440Z,57.62
2017-11-14T23:35:27.919Z,57.63
2017-11-14T23:36:30.390Z,57.72
2017-11-14T23:37:32.847Z,57.81
2017-11-14T23:38:35.321Z,57.91
2017-11-14T23:39:37.790Z,58.11
2017-11-14T23:40:40.252Z,58.19
2017-11-14T23:41:42.715Z,58.44
2017-11-14T23:42:45.190Z,58.65
2017-11-14T23:43:47.664Z,58.80
2017-11-14T23:44:50.143Z,58.64
2017-11-14T23:45:52.618Z,58.71
2017-11-14T23:46:55.098Z,58.81
2017-11-14T23:47:57.560Z,58.96
2017-11-14T23:49:00.025Z,58.85
2017-11-14T23:50:02.491Z,58.88
2017-11-14T23:51:04.966Z,59.05
2017-11-14T23:52:07.442Z,59.45
2017-11-14T23:53:09.901Z,59.56
2017-11-14T23:54:12.368Z,59.51
2017-11-14T23:55:14.837Z,59.48
2017-11-14T23:56:17.310Z,59.50
2017-11-14T23:57:19.782Z,59.62
2017-11-14T23:58:22.243Z,59.68
2017-11-14T23:59:24.703Z,59.72
